Time;durP1;ratioP1;P1;durP2;ratioP2;P2;SDS_P1;SDS_P2;PMS_P1;PMS_P2;Temp;Humidity;BMP_temperature;BMP_pressure;BME280_temperature;BME280_humidity;BME280_pressure;Samples;Min_cycle;Max_cycle;Signal;HPM_P1;HPM_P2
2022/11/16 00:00:58;;;;;;;18.70;12.35;;;;;;;7.07;100.00;98004.00;5052279;28;20623;-55
2022/11/16 00:03:23;;;;;;;17.35;11.65;;;;;;;7.13;100.00;98014.75;5052411;28;20244;-55
2022/11/16 00:05:54;;;;;;;17.02;12.25;;;;;;;7.14;100.00;98010.41;5052071;28;20660;-55
2022/11/16 00:08:20;;;;;;;17.13;10.70;;;;;;;7.20;100.00;98000.56;5052132;28;20245;-55
2022/11/16 00:10:45;;;;;;;16.73;11.48;;;;;;;7.16;100.00;97999.09;5051983;28;20343;-55
2022/11/16 00:13:10;;;;;;;17.35;11.27;;;;;;;7.15;100.00;97992.31;5052266;28;20166;-55
2022/11/16 00:15:36;;;;;;;18.35;11.55;;;;;;;7.06;100.00;98005.72;5052219;28;20555;-55
2022/11/16 00:18:01;;;;;;;18.13;11.82;;;;;;;6.98;100.00;98000.22;5051924;28;20180;-55
2022/11/16 00:20:26;;;;;;;19.35;13.88;;;;;;;7.02;100.00;97996.56;5050715;28;20186;-55
2022/11/16 00:22:52;;;;;;;18.23;13.05;;;;;;;6.95;100.00;97995.28;5051874;28;20224;-55
2022/11/16 00:25:18;;;;;;;20.70;14.57;;;;;;;6.92;100.00;98000.59;5050599;28;20269;-55
2022/11/16 00:27:43;;;;;;;23.77;15.80;;;;;;;6.83;100.00;98001.13;5052067;28;20265;-55
2022/11/16 00:30:09;;;;;;;25.42;16.02;;;;;;;6.94;100.00;97995.38;5051920;28;20756;-55
2022/11/16 00:32:35;;;;;;;25.40;16.38;;;;;;;6.96;100.00;97996.09;5052041;28;20265;-55
2022/11/16 00:35:00;;;;;;;26.58;16.92;;;;;;;7.00;100.00;97990.66;5052056;28;20253;-55
2022/11/16 00:37:25;;;;;;;26.77;16.60;;;;;;;7.03;100.00;97981.94;5051890;28;20181;-55
2022/11/16 00:39:51;;;;;;;29.70;17.65;;;;;;;7.05;100.00;97980.13;5050666;28;20158;-55
2022/11/16 00:42:16;;;;;;;28.20;17.40;;;;;;;6.90;100.00;97965.59;5050303;28;20169;-55
2022/11/16 00:44:42;;;;;;;26.90;17.95;;;;;;;7.05;100.00;97970.63;5051565;28;20178;-55
2022/11/16 00:47:07;;;;;;;29.70;17.85;;;;;;;7.13;100.00;97965.88;5051538;28;20261;-55
2022/11/16 00:49:32;;;;;;;25.50;17.70;;;;;;;7.10;100.00;97958.31;5051498;28;20189;-55
2022/11/16 00:51:58;;;;;;;25.00;17.42;;;;;;;6.99;100.00;97963.28;5051505;28;20614;-55
2022/11/16 00:54:23;;;;;;;24.80;14.98;;;;;;;7.18;100.00;97952.72;5051487;28;20173;-55
2022/11/16 00:56:49;;;;;;;16.70;9.70;;;;;;;7.13;100.00;97947.03;5051471;28;20170;-55
2022/11/16 00:59:14;;;;;;;10.63;8.55;;;;;;;7.08;100.00;97939.59;5051430;28;20173;-55
2022/11/16 01:01:39;;;;;;;11.00;8.80;;;;;;;7.11;100.00;97944.53;5051366;28;20268;-55
2022/11/16 01:04:05;;;;;;;19.20;13.13;;;;;;;7.07;100.00;97948.25;5051285;28;20189;-55
2022/11/16 01:06:30;;;;;;;23.90;14.98;;;;;;;7.04;100.00;97947.59;5051319;28;20600;-54
2022/11/16 01:08:56;;;;;;;27.95;16.45;;;;;;;6.92;100.00;97946.59;5051336;28;20168;-55
2022/11/16 01:14:07;;;;;;;25.92;16.92;;;;;;;7.04;100.00;97953.56;5051537;28;20165;-55
2022/11/16 01:16:32;;;;;;;22.15;13.90;;;;;;;7.18;100.00;97942.41;5051218;28;20177;-55
2022/11/16 01:18:58;;;;;;;25.75;17.08;;;;;;;7.09;100.00;97935.25;5051290;28;20184;-55
2022/11/16 01:21:24;;;;;;;29.08;17.75;;;;;;;7.10;100.00;97927.47;5051283;28;20174;-55
2022/11/16 01:23:50;;;;;;;28.50;17.48;;;;;;;7.08;100.00;97934.47;5051377;28;20181;-55
2022/11/16 01:26:16;;;;;;;29.02;18.00;;;;;;;7.06;100.00;97931.13;5051230;28;20663;-55
2022/11/16 01:28:41;;;;;;;28.30;18.52;;;;;;;6.63;100.00;97921.84;5051114;28;20198;-55
2022/11/16 01:31:08;;;;;;;32.13;20.17;;;;;;;6.52;100.00;97919.09;5051008;28;20202;-56
2022/11/16 01:33:34;;;;;;;33.38;21.17;;;;;;;6.70;100.00;97907.69;5051113;28;20179;-55
2022/11/16 01:36:00;;;;;;;29.92;18.15;;;;;;;6.91;100.00;97915.81;5051330;28;20184;-55
2022/11/16 01:38:25;;;;;;;28.25;18.27;;;;;;;7.00;100.00;97908.38;5051071;28;20708;-56
2022/11/16 01:40:51;;;;;;;33.25;18.90;;;;;;;7.07;100.00;97912.22;5051088;28;20249;-55
2022/11/16 01:43:20;;;;;;;27.65;16.27;;;;;;;7.15;100.00;97915.13;5051040;28;20543;-55
2022/11/16 01:45:46;;;;;;;29.45;16.52;;;;;;;7.14;100.00;97922.94;5050953;28;20185;-55
2022/11/16 01:48:15;;;;;;;25.42;16.48;;;;;;;7.34;100.00;97925.91;5051160;28;20181;-55
2022/11/16 01:50:41;;;;;;;22.20;14.68;;;;;;;7.20;100.00;97923.41;5050938;28;20244;-55
2022/11/16 01:53:10;;;;;;;22.48;14.85;;;;;;;7.03;100.00;97921.06;5054374;28;20178;-55
2022/11/16 01:55:36;;;;;;;26.30;16.25;;;;;;;6.94;100.00;97919.03;5054756;28;20174;-55
2022/11/16 01:58:02;;;;;;;27.20;16.33;;;;;;;6.97;100.00;97921.44;5054820;28;20177;-55
2022/11/16 02:00:27;;;;;;;29.67;18.20;;;;;;;7.06;100.00;97915.69;5054590;28;20213;-55
2022/11/16 02:02:53;;;;;;;39.03;18.63;;;;;;;7.06;100.00;97920.03;5054731;28;20205;-55
2022/11/16 02:05:26;;;;;;;29.70;18.73;;;;;;;7.08;100.00;97925.91;5054408;28;20225;-55
2022/11/16 02:10:57;;;;;;;30.25;18.48;;;;;;;6.96;100.00;97922.34;5054541;28;20196;-55
2022/11/16 02:13:57;;;;;;;30.65;18.63;;;;;;;7.01;100.00;97917.75;5054282;28;20629;-55
2022/11/16 02:16:52;;;;;;;25.42;17.77;;;;;;;6.87;100.00;97920.34;5053481;28;20627;-55
2022/11/16 02:19:46;;;;;;;26.20;16.55;;;;;;;6.91;100.00;97919.25;5054323;28;20169;-55
2022/11/16 02:22:37;;;;;;;29.70;19.42;;;;;;;7.00;100.00;97910.13;5054255;28;20166;-55
2022/11/16 02:25:26;;;;;;;27.15;17.75;;;;;;;7.01;100.00;97912.63;5054318;28;20174;-55
2022/11/16 02:28:02;;;;;;;31.08;18.15;;;;;;;6.95;100.00;97914.72;5054106;28;20158;-55
2022/11/16 02:30:27;;;;;;;32.20;19.80;;;;;;;6.79;100.00;97907.13;5053941;28;20193;-55
2022/11/16 02:33:01;;;;;;;30.70;19.15;;;;;;;6.81;100.00;97910.44;5053992;28;20581;-55
2022/11/16 02:35:42;;;;;;;29.77;18.60;;;;;;;6.82;100.00;97903.56;5054136;28;20170;-55
2022/11/16 02:38:17;;;;;;;34.92;21.10;;;;;;;6.75;100.00;97894.56;5053989;28;20166;-55
2022/11/16 02:40:47;;;;;;;33.63;19.85;;;;;;;6.82;100.00;97896.66;5053947;28;20160;-55
2022/11/16 02:43:20;;;;;;;32.67;19.35;;;;;;;6.82;100.00;97891.50;5053690;28;20182;-54
2022/11/16 02:45:50;;;;;;;33.65;20.65;;;;;;;6.66;100.00;97890.81;5053885;28;20650;-55
2022/11/16 02:48:24;;;;;;;34.03;20.98;;;;;;;6.59;100.00;97888.72;5053593;28;20177;-55
2022/11/16 02:50:52;;;;;;;34.15;20.65;;;;;;;6.65;100.00;97875.47;5053933;28;20194;-55
2022/11/16 02:53:20;;;;;;;35.42;19.30;;;;;;;6.84;100.00;97873.41;5053807;28;20558;-55
2022/11/16 02:55:45;;;;;;;32.28;20.25;;;;;;;6.85;100.00;97857.91;5053700;28;20174;-55
2022/11/16 02:58:16;;;;;;;30.08;17.90;;;;;;;6.88;100.00;97855.13;5053393;28;20181;-54
2022/11/16 03:00:58;;;;;;;26.83;17.20;;;;;;;6.95;100.00;97848.69;5053364;28;20173;-55
2022/11/16 03:04:15;;;;;;;24.30;16.00;;;;;;;7.07;100.00;97855.66;5052571;28;20162;-55
2022/11/16 03:06:44;;;;;;;19.67;13.70;;;;;;;6.84;100.00;97848.56;5052886;28;20209;-55
2022/11/16 03:09:16;;;;;;;23.25;13.93;;;;;;;6.89;100.00;97856.81;5053438;28;20181;-55
2022/11/16 03:11:59;;;;;;;21.70;13.93;;;;;;;6.97;100.00;97852.00;5053244;28;20589;-55
2022/11/16 03:14:48;;;;;;;27.08;16.05;;;;;;;6.96;100.00;97842.63;5053396;28;20262;-55
2022/11/16 03:17:25;;;;;;;29.40;17.92;;;;;;;6.99;100.00;97839.84;5052817;28;20667;-54
2022/11/16 03:20:25;;;;;;;27.95;17.10;;;;;;;7.03;100.00;97838.75;5053067;28;20165;-55
2022/11/16 03:22:59;;;;;;;30.20;18.05;;;;;;;6.83;100.00;97835.78;5053280;28;20184;-55
2022/11/16 03:25:31;;;;;;;34.20;20.35;;;;;;;6.77;100.00;97836.97;5053221;28;20623;-55
2022/11/16 03:28:28;;;;;;;36.47;20.92;;;;;;;6.72;100.00;97818.47;5052963;28;20219;-55
2022/11/16 03:30:59;;;;;;;33.15;20.58;;;;;;;6.88;100.00;97808.03;5052516;28;20288;-55
2022/11/16 03:33:33;;;;;;;29.10;19.50;;;;;;;6.94;100.00;97793.03;5053268;28;20166;-55
2022/11/16 03:36:12;;;;;;;19.63;11.93;;;;;;;7.04;100.00;97794.09;5052997;28;20169;-55
2022/11/16 03:38:40;;;;;;;17.85;11.68;;;;;;;7.08;100.00;97789.56;5052945;28;20162;-55
2022/11/16 03:41:08;;;;;;;13.75;10.57;;;;;;;7.07;100.00;97787.94;5052566;28;20174;-55
2022/11/16 03:43:36;;;;;;;22.83;14.98;;;;;;;7.26;100.00;97793.53;5052757;28;20557;-55
2022/11/16 03:46:02;;;;;;;19.05;12.05;;;;;;;7.36;100.00;97808.28;5051149;28;20571;-55
2022/11/16 03:48:38;;;;;;;20.15;13.43;;;;;;;7.46;100.00;97811.88;5052503;28;20178;-54
2022/11/16 03:51:06;;;;;;;31.77;19.73;;;;;;;7.51;100.00;97814.19;5052317;28;20203;-54
2022/11/16 03:53:32;;;;;;;34.47;21.80;;;;;;;7.53;100.00;97818.31;5052319;28;20181;-55
2022/11/16 03:55:58;;;;;;;32.97;20.10;;;;;;;7.46;100.00;97813.66;5052402;28;20184;-55
2022/11/16 03:58:23;;;;;;;30.58;19.55;;;;;;;7.39;100.00;97810.66;5052322;28;20180;-55
2022/11/16 04:00:49;;;;;;;37.80;21.92;;;;;;;7.26;100.00;97796.94;5052355;28;20174;-55
2022/11/16 04:03:14;;;;;;;30.17;18.88;;;;;;;7.27;100.00;97800.31;5052263;28;20256;-55
2022/11/16 04:25:14;;;;;;;38.40;22.75;;;;;;;7.12;100.00;97796.19;5052331;28;20169;-55
2022/11/16 04:30:24;;;;;;;32.55;20.55;;;;;;;6.99;100.00;97780.69;5051642;28;20196;-55
2022/11/16 04:38:31;;;;;;;33.83;20.65;;;;;;;7.01;100.00;97758.31;5051914;28;20228;-55
2022/11/16 04:40:56;;;;;;;35.15;22.13;;;;;;;7.00;100.00;97748.91;5051676;28;20170;-55
2022/11/16 04:43:21;;;;;;;36.13;22.85;;;;;;;7.05;100.00;97751.22;5051547;28;20638;-55
2022/11/16 04:48:30;;;;;;;30.48;20.13;;;;;;;7.01;100.00;97745.44;5051804;28;20248;-54
2022/11/16 04:50:56;;;;;;;25.13;15.15;;;;;;;6.91;100.00;97730.69;5051499;28;20292;-55
2022/11/16 04:53:25;;;;;;;26.17;15.68;;;;;;;6.97;100.00;97732.88;5051747;28;20175;-54
2022/11/16 04:55:51;;;;;;;25.80;16.13;;;;;;;6.92;100.00;97733.16;5051669;28;20174;-54
2022/11/16 04:58:16;;;;;;;29.08;17.55;;;;;;;6.98;100.00;97737.91;5051391;28;20273;-55
2022/11/16 05:00:41;;;;;;;30.58;18.75;;;;;;;7.02;100.00;97734.22;5051387;28;20177;-55
2022/11/16 05:03:07;;;;;;;26.60;17.83;;;;;;;7.19;100.00;97751.97;5051395;28;20173;-55
2022/11/16 05:05:32;;;;;;;30.13;18.40;;;;;;;7.20;100.00;97761.31;5051122;28;20721;-55
2022/11/16 05:07:58;;;;;;;28.13;17.42;;;;;;;7.23;100.00;97763.69;5051252;28;20185;-55
2022/11/16 05:10:23;;;;;;;26.63;17.33;;;;;;;7.23;100.00;97763.69;5051517;28;20205;-55
2022/11/16 05:12:48;;;;;;;29.90;18.70;;;;;;;7.19;100.00;97764.81;5051332;28;20174;-55
2022/11/16 05:15:16;;;;;;;29.95;19.73;;;;;;;7.06;100.00;97761.38;5051256;28;20178;-55
2022/11/16 05:17:41;;;;;;;31.30;20.05;;;;;;;7.06;100.00;97769.09;5051184;28;20174;-55
2022/11/16 05:21:09;;;;;;;35.28;19.65;;;;;;;7.02;100.00;97767.66;5051617;28;20166;-55
2022/11/16 05:23:03;;;;;;;33.63;20.67;;;;;;;7.02;100.00;97761.69;5050596;28;20262;-55
2022/11/16 05:25:28;;;;;;;38.83;22.08;;;;;;;7.08;100.00;97762.13;5051145;28;20190;-55
2022/11/16 05:27:54;;;;;;;39.00;23.48;;;;;;;7.09;100.00;97748.34;5054762;28;20185;-55
2022/11/16 05:30:19;;;;;;;34.05;21.40;;;;;;;7.02;100.00;97749.66;5055264;28;20666;-55
2022/11/16 05:32:45;;;;;;;38.55;22.27;;;;;;;7.03;100.00;97750.47;5055461;28;20181;-55
2022/11/16 05:35:10;;;;;;;41.38;23.00;;;;;;;6.98;100.00;97753.34;5055005;28;20182;-55
2022/11/16 05:37:36;;;;;;;34.45;21.33;;;;;;;6.91;100.00;97772.66;5054959;28;20173;-55
2022/11/16 05:40:01;;;;;;;39.47;24.27;;;;;;;6.94;100.00;97772.47;5055105;28;20184;-55
2022/11/16 05:42:27;;;;;;;40.38;24.50;;;;;;;6.99;100.00;97785.84;5054894;28;20174;-55
2022/11/16 05:44:52;;;;;;;40.45;23.95;;;;;;;7.03;100.00;97782.16;5054827;28;20182;-55
2022/11/16 05:47:17;;;;;;;40.10;24.40;;;;;;;7.01;100.00;97773.75;5055024;28;20201;-55
2022/11/16 05:49:43;;;;;;;39.03;23.95;;;;;;;7.00;100.00;97766.09;5054932;28;20293;-56
2022/11/16 05:52:08;;;;;;;47.70;24.83;;;;;;;6.94;100.00;97772.47;5055247;28;20256;-55
2022/11/16 05:54:34;;;;;;;42.10;25.40;;;;;;;6.97;100.00;97769.69;5054698;28;20174;-55
2022/11/16 05:56:59;;;;;;;38.58;24.30;;;;;;;6.89;100.00;97769.38;5054656;28;20213;-56
2022/11/16 05:59:24;;;;;;;40.33;25.20;;;;;;;6.89;100.00;97769.38;5054595;28;20177;-56
2022/11/16 06:01:50;;;;;;;46.35;28.75;;;;;;;6.90;100.00;97765.88;5053237;28;20565;-55
2022/11/16 06:04:16;;;;;;;46.47;29.52;;;;;;;6.89;100.00;97760.81;5054286;28;20259;-56
2022/11/16 06:06:42;;;;;;;52.63;28.70;;;;;;;6.93;100.00;97770.00;5054270;28;20225;-55
2022/11/16 06:09:08;;;;;;;49.25;29.30;;;;;;;6.94;100.00;97766.50;5054372;28;20170;-55
2022/11/16 06:11:35;;;;;;;49.97;30.05;;;;;;;7.03;100.00;97753.88;5054234;28;20247;-55
2022/11/16 06:14:00;;;;;;;50.47;29.80;;;;;;;7.10;100.00;97751.75;5054319;28;20170;-55
2022/11/16 06:16:26;;;;;;;47.75;28.45;;;;;;;7.14;100.00;97748.03;5054187;28;20170;-55
2022/11/16 06:18:51;;;;;;;51.10;30.38;;;;;;;7.23;100.00;97743.09;5054184;28;20676;-55
2022/11/16 06:21:18;;;;;;;54.13;30.77;;;;;;;7.25;100.00;97746.41;5054293;28;20631;-55
2022/11/16 06:23:44;;;;;;;53.63;31.67;;;;;;;7.33;100.00;97741.56;5054341;28;20272;-55
2022/11/16 06:26:09;;;;;;;56.78;33.30;;;;;;;7.33;100.00;97744.16;5054429;28;20252;-55
2022/11/16 06:28:35;;;;;;;61.72;34.33;;;;;;;7.43;100.00;97742.63;5054150;28;20185;-55
2022/11/16 06:31:01;;;;;;;61.00;32.92;;;;;;;7.51;100.00;97745.50;5054082;28;20678;-55
2022/11/16 06:33:27;;;;;;;55.90;33.58;;;;;;;7.60;100.00;97737.16;5054412;28;20185;-55
2022/11/16 06:35:52;;;;;;;60.50;34.80;;;;;;;7.65;100.00;97740.28;5053998;28;20253;-55
2022/11/16 06:38:18;;;;;;;61.05;33.60;;;;;;;7.77;100.00;97739.44;5053927;28;20173;-55
2022/11/16 06:40:45;;;;;;;58.63;33.83;;;;;;;7.65;100.00;97735.13;5054234;28;20255;-55
2022/11/16 06:43:10;;;;;;;52.30;32.08;;;;;;;7.80;100.00;97736.63;5053971;28;20189;-55
2022/11/16 06:45:36;;;;;;;51.28;31.90;;;;;;;7.88;100.00;97728.41;5054109;28;20528;-55
2022/11/16 06:48:01;;;;;;;52.70;32.70;;;;;;;7.92;100.00;97722.13;5054103;28;20174;-55
2022/11/16 06:50:27;;;;;;;58.75;31.92;;;;;;;8.04;100.00;97726.41;5053758;28;20193;-56
2022/11/16 06:52:52;;;;;;;58.92;32.13;;;;;;;8.19;100.00;97738.22;5053605;28;20268;-55
2022/11/16 06:55:18;;;;;;;61.72;35.58;;;;;;;8.64;100.00;97746.16;5053745;28;20195;-55
2022/11/16 06:57:45;;;;;;;56.83;35.20;;;;;;;9.09;100.00;97734.28;5053668;28;20173;-56
2022/11/16 07:00:11;;;;;;;60.70;34.63;;;;;;;9.24;100.00;97739.13;5053850;28;20178;-56
2022/11/16 07:02:37;;;;;;;50.92;32.85;;;;;;;9.30;100.00;97733.53;5053792;28;20188;-55
2022/11/16 07:05:05;;;;;;;58.35;33.97;;;;;;;9.34;100.00;97734.13;5053318;28;20201;-55
2022/11/16 07:07:31;;;;;;;63.80;35.40;;;;;;;9.38;100.00;97731.19;5052128;28;20174;-56
2022/11/16 07:09:56;;;;;;;57.22;35.08;;;;;;;9.35;100.00;97734.00;5053574;28;20193;-56
2022/11/16 07:12:21;;;;;;;52.90;33.70;;;;;;;9.37;100.00;97729.53;5053647;28;20178;-56
2022/11/16 07:14:47;;;;;;;68.05;34.80;;;;;;;9.38;100.00;97731.19;5053366;28;20252;-56
2022/11/16 07:17:12;;;;;;;56.53;33.75;;;;;;;9.40;100.00;97729.31;5053248;28;20185;-56
2022/11/16 07:19:38;;;;;;;51.65;32.80;;;;;;;9.41;100.00;97730.97;5053280;28;20204;-55
2022/11/16 07:22:05;;;;;;;51.00;31.23;;;;;;;9.46;100.00;97733.19;5053316;28;20189;-55
2022/11/16 07:24:30;;;;;;;62.22;34.38;;;;;;;9.49;100.00;97738.16;5053208;28;20184;-55
2022/11/16 07:26:56;;;;;;;54.53;32.10;;;;;;;9.54;100.00;97734.28;5053217;28;20185;-55
2022/11/16 07:29:21;;;;;;;53.95;31.77;;;;;;;9.58;100.00;97720.19;5052882;28;20174;-55
2022/11/16 07:31:47;;;;;;;57.35;32.88;;;;;;;9.57;100.00;97723.72;5053162;28;20684;-56
2022/11/16 07:34:12;;;;;;;55.20;32.00;;;;;;;9.57;100.00;97715.97;5053032;28;20252;-56
2022/11/16 07:36:38;;;;;;;55.55;31.52;;;;;;;9.56;100.00;97714.31;5053173;28;20694;-57
2022/11/16 07:39:03;;;;;;;58.38;32.38;;;;;;;9.36;100.00;97712.41;5052283;28;20256;-56
2022/11/16 07:41:28;;;;;;;62.95;34.08;;;;;;;9.46;100.00;97712.53;5051379;28;20231;-56
2022/11/16 07:43:55;;;;;;;58.78;33.45;;;;;;;9.53;100.00;97711.97;5052270;28;20197;-56
2022/11/16 07:46:22;;;;;;;59.80;34.17;;;;;;;9.55;100.00;97717.03;5052489;28;20273;-56
2022/11/16 07:48:48;;;;;;;59.58;33.25;;;;;;;9.68;100.00;97719.38;5052144;28;20627;-56
2022/11/16 07:51:15;;;;;;;57.45;32.45;;;;;;;9.74;100.00;97713.75;5052526;28;20285;-56
2022/11/16 07:53:42;;;;;;;55.30;31.80;;;;;;;9.80;100.00;97702.94;5052722;28;20178;-56
2022/11/16 07:56:09;;;;;;;53.63;30.10;;;;;;;9.89;100.00;97702.25;5052694;28;20174;-55
2022/11/16 07:58:35;;;;;;;53.42;31.13;;;;;;;9.95;100.00;97706.13;5052645;28;20252;-56
2022/11/16 08:01:10;;;;;;;55.47;33.00;;;;;;;10.06;100.00;97708.72;5052277;28;20182;-56
2022/11/16 08:03:37;;;;;;;56.55;30.38;;;;;;;10.04;100.00;97711.41;5052377;28;20605;-56
2022/11/16 08:06:09;;;;;;;49.33;27.65;;;;;;;10.11;100.00;97709.19;5052223;28;20728;-55
2022/11/16 08:08:35;;;;;;;48.90;30.80;;;;;;;10.20;100.00;97708.47;5052657;28;20558;-55
2022/11/16 08:11:05;;;;;;;48.30;28.30;;;;;;;10.27;100.00;97704.47;5052175;28;20228;-55
2022/11/16 08:13:33;;;;;;;53.25;29.27;;;;;;;10.35;100.00;97707.28;5052420;28;20170;-56
2022/11/16 08:16:03;;;;;;;53.85;31.55;;;;;;;10.41;100.00;97710.22;5052050;28;20182;-55
2022/11/16 08:18:29;;;;;;;49.05;29.10;;;;;;;10.45;100.00;97703.03;5051985;28;20213;-55
2022/11/16 08:20:54;;;;;;;58.95;31.13;;;;;;;10.53;100.00;97711.00;5052281;28;20169;-55
2022/11/16 08:23:20;;;;;;;56.30;32.90;;;;;;;10.62;100.00;97707.69;5052933;28;20181;-55
2022/11/16 08:25:45;;;;;;;65.05;33.65;;;;;;;10.70;100.00;97713.06;5052080;28;20184;-55
2022/11/16 08:28:13;;;;;;;56.10;32.17;;;;;;;10.72;100.00;97703.41;5052008;28;20647;-55
2022/11/16 08:30:38;;;;;;;63.22;32.55;;;;;;;10.66;100.00;97703.88;5052054;28;20198;-56
2022/11/16 08:33:04;;;;;;;59.05;32.85;;;;;;;10.69;100.00;97704.47;5051817;28;20181;-55
2022/11/16 08:35:29;;;;;;;54.15;32.22;;;;;;;10.74;100.00;97701.53;5051822;28;20562;-56
2022/11/16 08:37:55;;;;;;;53.30;31.10;;;;;;;10.84;100.00;97697.22;5052049;28;20639;-55
2022/11/16 08:40:21;;;;;;;57.17;32.90;;;;;;;10.92;100.00;97700.03;5052085;28;20311;-55
2022/11/16 08:42:46;;;;;;;55.95;31.10;;;;;;;10.92;100.00;97694.88;5052016;28;20186;-55
2022/11/16 08:45:11;;;;;;;52.40;29.98;;;;;;;11.01;100.00;97699.28;5050428;28;20178;-55
2022/11/16 08:47:37;;;;;;;59.72;32.50;;;;;;;11.10;100.00;97693.38;5051652;28;20174;-55
2022/11/16 08:50:03;;;;;;;52.45;29.80;;;;;;;11.12;100.00;97683.69;5050268;28;20646;-55
2022/11/16 08:52:28;;;;;;;62.55;31.02;;;;;;;11.17;100.00;97681.56;5051726;28;20177;-55
2022/11/16 08:54:53;;;;;;;55.75;32.13;;;;;;;11.16;100.00;97672.16;5051839;28;20177;-55
2022/11/16 08:57:19;;;;;;;49.65;30.25;;;;;;;11.26;100.00;97679.03;5051639;28;20247;-55
2022/11/16 08:59:44;;;;;;;58.08;30.65;;;;;;;11.32;100.00;97669.94;5051691;28;20181;-55
2022/11/16 09:02:10;;;;;;;53.33;29.85;;;;;;;11.36;100.00;97668.72;5053982;28;20184;-55
2022/11/16 09:04:35;;;;;;;56.50;32.17;;;;;;;11.42;100.00;97660.44;5055597;28;20693;-55
2022/11/16 09:07:00;;;;;;;49.67;31.55;;;;;;;11.47;100.00;97666.06;5055544;28;20280;-55
2022/11/16 09:09:26;;;;;;;53.00;30.58;;;;;;;11.51;100.00;97663.09;5055821;28;20669;-55
2022/11/16 09:11:54;;;;;;;55.92;30.58;;;;;;;11.53;100.00;97668.13;5055476;28;20662;-55
2022/11/16 09:14:19;;;;;;;57.38;31.10;;;;;;;11.57;100.00;97661.75;5055777;28;20184;-55
2022/11/16 09:16:44;;;;;;;46.38;29.25;;;;;;;11.64;100.00;97655.13;5055452;28;20185;-55
2022/11/16 09:19:10;;;;;;;55.45;30.83;;;;;;;11.74;100.00;97654.19;5055435;28;20256;-55
2022/11/16 09:21:36;;;;;;;54.75;30.90;;;;;;;11.73;100.00;97646.59;5055508;28;20177;-55
2022/11/16 09:24:02;;;;;;;51.78;32.30;;;;;;;11.78;100.00;97634.06;5055734;28;20181;-55
2022/11/16 09:26:27;;;;;;;57.83;31.95;;;;;;;11.77;100.00;97635.81;5055706;28;20643;-56
2022/11/16 09:28:57;;;;;;;55.83;31.80;;;;;;;11.73;100.00;97625.84;5055878;28;20272;-55
2022/11/16 09:31:27;;;;;;;67.63;34.17;;;;;;;11.58;100.00;97627.13;5055517;28;20206;-55
2022/11/16 09:33:57;;;;;;;53.05;32.42;;;;;;;11.65;100.00;97617.91;5055265;28;20669;-55
2022/11/16 09:36:23;;;;;;;58.17;33.55;;;;;;;11.74;100.00;97609.34;5054106;28;20256;-55
2022/11/16 09:38:48;;;;;;;54.20;32.13;;;;;;;11.82;100.00;97610.34;5055283;28;20178;-55
2022/11/16 09:41:14;;;;;;;57.85;33.35;;;;;;;11.95;100.00;97599.69;5055424;28;20201;-55
2022/11/16 09:44:04;;;;;;;50.55;31.52;;;;;;;11.93;100.00;97594.69;5055157;28;20625;-55
2022/11/16 09:46:38;;;;;;;51.10;32.78;;;;;;;12.05;100.00;97590.19;5055158;28;20173;-55
2022/11/16 09:49:12;;;;;;;51.17;31.05;;;;;;;12.16;100.00;97582.28;5055368;28;20165;-55
2022/11/16 09:51:40;;;;;;;51.92;29.55;;;;;;;12.27;100.00;97576.97;5055343;28;20188;-55
2022/11/16 09:54:13;;;;;;;47.78;28.67;;;;;;;12.36;100.00;97574.38;5055181;28;20177;-55
2022/11/16 09:56:41;;;;;;;43.97;27.88;;;;;;;12.44;100.00;97569.31;5054739;28;20184;-55
2022/11/16 09:59:06;;;;;;;43.50;27.80;;;;;;;12.53;100.00;97565.91;5054690;28;20185;-55
2022/11/16 10:01:37;;;;;;;39.47;25.85;;;;;;;12.61;100.00;97557.44;5054638;28;20212;-55
2022/11/16 10:04:35;;;;;;;40.35;24.60;;;;;;;12.71;100.00;97547.88;5054518;28;20198;-55
2022/11/16 10:07:07;;;;;;;34.22;23.73;;;;;;;12.86;100.00;97546.47;5054477;28;20197;-55
2022/11/16 10:09:34;;;;;;;37.80;22.83;;;;;;;12.90;100.00;97540.84;5055039;28;20240;-55
2022/11/16 10:12:22;;;;;;;36.80;23.25;;;;;;;12.99;100.00;97531.44;5053987;28;20189;-55
2022/11/16 10:15:06;;;;;;;29.50;21.48;;;;;;;13.07;100.00;97534.16;5054407;28;20162;-55
2022/11/16 10:17:47;;;;;;;33.58;21.33;;;;;;;13.07;100.00;97521.19;5054276;28;20253;-55
2022/11/16 10:20:41;;;;;;;35.10;21.00;;;;;;;13.26;100.00;97521.09;5054257;28;20174;-55
2022/11/16 10:23:38;;;;;;;33.45;21.35;;;;;;;13.34;100.00;97510.78;5054128;28;20654;-55
2022/11/16 10:26:18;;;;;;;37.88;21.05;;;;;;;13.38;100.00;97509.56;5054545;28;20611;-55
2022/11/16 10:28:58;;;;;;;34.05;20.10;;;;;;;13.42;100.00;97500.53;5054498;28;20243;-55
2022/11/16 10:31:50;;;;;;;34.25;21.38;;;;;;;13.53;100.00;97498.53;5054303;28;20192;-55
2022/11/16 10:34:26;;;;;;;33.03;21.40;;;;;;;13.69;100.00;97496.13;5054324;28;20154;-55
2022/11/16 10:36:56;;;;;;;36.67;22.05;;;;;;;13.79;100.00;97491.69;5054509;28;20264;-55
2022/11/16 10:39:24;;;;;;;29.83;21.48;;;;;;;13.94;100.00;97502.38;5054056;28;20162;-56
2022/11/16 10:41:50;;;;;;;28.98;19.65;;;;;;;14.03;100.00;97501.50;5053855;28;20603;-55
2022/11/16 10:44:34;;;;;;;35.92;23.67;;;;;;;14.17;100.00;97486.19;5054110;28;20177;-55
2022/11/16 10:47:26;;;;;;;31.90;21.75;;;;;;;14.30;100.00;97489.25;5053001;28;20687;-55
2022/11/16 10:49:59;;;;;;;29.60;21.88;;;;;;;14.43;100.00;97481.88;5053575;28;20569;-55
2022/11/16 10:52:25;;;;;;;31.65;19.38;;;;;;;14.51;100.00;97478.50;5053643;28;20208;-55
2022/11/16 10:54:51;;;;;;;28.52;19.08;;;;;;;14.65;100.00;97475.38;5053883;28;20181;-55
2022/11/16 10:57:18;;;;;;;27.98;18.83;;;;;;;14.74;100.00;97471.81;5053887;28;20709;-55
2022/11/16 10:59:49;;;;;;;27.20;17.92;;;;;;;14.83;100.00;97468.31;5053796;28;20190;-55
2022/11/16 11:02:23;;;;;;;24.75;17.85;;;;;;;14.94;100.00;97466.25;5053738;28;20172;-55
2022/11/16 11:05:16;;;;;;;27.15;17.40;;;;;;;14.99;100.00;97458.00;5053496;28;20232;-55
2022/11/16 11:07:48;;;;;;;25.00;17.95;;;;;;;15.01;100.00;97450.81;5053002;28;20285;-56
2022/11/16 11:10:34;;;;;;;24.83;17.27;;;;;;;14.99;100.00;97456.19;5053524;28;20204;-56
2022/11/16 11:13:24;;;;;;;23.00;16.35;;;;;;;14.97;100.00;97454.72;5053586;28;20185;-56
2022/11/16 11:15:50;;;;;;;29.15;20.40;;;;;;;15.04;100.00;97450.53;5053656;28;20615;-56
2022/11/16 11:18:30;;;;;;;21.42;15.18;;;;;;;15.05;100.00;97433.91;5053505;28;20565;-55
2022/11/16 11:21:11;;;;;;;22.00;15.50;;;;;;;15.05;100.00;97437.31;5053413;28;20154;-56
2022/11/16 11:23:46;;;;;;;21.83;16.35;;;;;;;15.16;100.00;97438.84;5052910;28;20154;-55
2022/11/16 11:26:35;;;;;;;24.33;14.30;;;;;;;15.19;100.00;97433.31;5053022;28;20180;-56
2022/11/16 11:29:19;;;;;;;25.92;15.05;;;;;;;15.25;100.00;97427.47;5053262;28;20165;-56
2022/11/16 11:31:51;;;;;;;65.68;37.65;;;;;;;15.26;100.00;97429.09;5052925;28;20197;-56
2022/11/16 11:34:22;;;;;;;22.42;16.10;;;;;;;15.27;100.00;97423.75;5053214;28;20177;-56
2022/11/16 11:37:00;;;;;;;24.52;16.98;;;;;;;15.25;100.00;97422.25;5052939;28;20240;-56
2022/11/16 11:39:31;;;;;;;24.95;16.42;;;;;;;15.18;100.00;97411.66;5051196;28;20227;-56
2022/11/16 11:42:12;;;;;;;25.67;15.93;;;;;;;15.25;100.00;97417.06;5051437;28;20256;-56
2022/11/16 11:45:01;;;;;;;23.38;15.88;;;;;;;15.18;100.00;97410.84;5052956;28;20223;-56
2022/11/16 11:48:13;;;;;;;20.75;15.23;;;;;;;15.18;100.00;97406.47;5052772;28;20172;-56
2022/11/16 11:51:18;;;;;;;21.67;15.65;;;;;;;15.19;100.00;97407.25;5052565;28;20745;-56
2022/11/16 11:53:54;;;;;;;18.02;13.85;;;;;;;15.04;100.00;97403.63;5052716;28;20184;-56
2022/11/16 11:56:20;;;;;;;22.00;14.55;;;;;;;14.98;100.00;97394.66;5052828;28;20249;-56
2022/11/16 11:58:47;;;;;;;19.95;14.10;;;;;;;14.92;100.00;97384.84;5052709;28;20623;-56
2022/11/16 12:01:34;;;;;;;21.83;15.35;;;;;;;14.86;100.00;97390.69;5052624;28;20166;-56
2022/11/16 12:04:33;;;;;;;21.35;15.70;;;;;;;14.78;100.00;97382.03;5052538;28;20162;-56